createdAt,value
2018-09-17T00:00:34.172Z,18.93
2018-09-17T00:03:02.580Z,18.84
2018-09-17T00:05:31.030Z,18.80
2018-09-17T00:07:59.514Z,18.78
2018-09-17T00:10:27.918Z,18.79
2018-09-17T00:12:56.365Z,18.80
2018-09-17T00:15:24.723Z,18.85
2018-09-17T00:17:53.145Z,18.85
2018-09-17T00:20:21.473Z,18.89
2018-09-17T00:22:50.100Z,18.92
2018-09-17T00:25:18.465Z,18.87
2018-09-17T00:27:46.804Z,18.89
2018-09-17T00:30:15.183Z,18.99
2018-09-17T00:32:43.587Z,19.09
2018-09-17T00:35:11.912Z,19.16
2018-09-17T00:37:40.484Z,19.13
2018-09-17T00:40:08.863Z,19.13
2018-09-17T00:42:37.200Z,19.15
2018-09-17T00:45:05.666Z,19.12
2018-09-17T00:47:34.127Z,19.06
2018-09-17T00:50:02.566Z,19.03
2018-09-17T00:52:31.462Z,18.96
2018-09-17T00:54:59.838Z,18.91
2018-09-17T00:57:28.234Z,18.86
2018-09-17T00:59:56.649Z,18.83
2018-09-17T01:02:24.974Z,18.80
2018-09-17T01:04:53.310Z,18.79
2018-09-17T01:07:21.942Z,18.74
2018-09-17T01:09:50.280Z,18.68
2018-09-17T01:12:18.630Z,18.64
2018-09-17T01:14:47.807Z,18.66
2018-09-17T01:17:16.181Z,18.66
2018-09-17T01:19:44.514Z,18.64
2018-09-17T01:22:13.000Z,18.62
2018-09-17T01:24:41.409Z,18.62
2018-09-17T01:27:09.806Z,18.63
2018-09-17T01:29:38.176Z,18.60
2018-09-17T01:32:06.536Z,18.61
2018-09-17T01:34:35.024Z,18.64
2018-09-17T01:37:03.401Z,18.64
2018-09-17T01:39:31.733Z,18.63
2018-09-17T01:42:00.164Z,18.61
2018-09-17T01:44:28.586Z,18.60
2018-09-17T01:46:56.928Z,18.63
2018-09-17T01:49:25.312Z,18.63
2018-09-17T01:51:53.724Z,18.63
2018-09-17T01:54:22.068Z,18.66
2018-09-17T01:56:50.530Z,18.69
2018-09-17T01:59:19.255Z,18.72
2018-09-17T02:01:48.583Z,18.72
2018-09-17T02:04:16.919Z,18.73
2018-09-17T02:06:45.483Z,18.74
2018-09-17T02:09:13.843Z,18.74
2018-09-17T02:11:42.201Z,18.73
2018-09-17T02:14:10.593Z,18.75
2018-09-17T02:16:39.001Z,18.78
2018-09-17T02:19:07.334Z,18.81
2018-09-17T02:21:36.564Z,18.82
2018-09-17T02:24:04.977Z,18.86
2018-09-17T02:26:33.368Z,18.89
2018-09-17T02:29:01.915Z,18.92
2018-09-17T02:31:30.255Z,18.94
2018-09-17T02:33:58.692Z,18.98
2018-09-17T02:36:27.070Z,19.03
2018-09-17T02:38:55.499Z,19.02
2018-09-17T02:41:23.917Z,19.01
2018-09-17T02:43:52.318Z,18.97
2018-09-17T02:46:20.670Z,18.92
2018-09-17T02:48:49.105Z,18.89
2018-09-17T02:51:17.825Z,18.87
2018-09-17T02:53:46.307Z,18.88
2018-09-17T02:56:14.627Z,18.88
2018-09-17T02:58:43.263Z,18.91
2018-09-17T03:01:11.773Z,18.91
2018-09-17T03:03:41.341Z,18.90
2018-09-17T03:06:09.719Z,18.91
2018-09-17T03:08:38.099Z,18.93
2018-09-17T03:11:06.665Z,18.93
2018-09-17T03:13:35.135Z,18.90
2018-09-17T03:16:03.573Z,18.86
2018-09-17T03:18:46.129Z,18.87
2018-09-17T03:21:14.462Z,18.89
2018-09-17T03:23:42.874Z,18.86
2018-09-17T03:26:12.328Z,18.78
2018-09-17T03:28:40.816Z,18.72
2018-09-17T03:31:09.157Z,18.68
2018-09-17T03:33:37.615Z,18.66
2018-09-17T03:36:06.300Z,18.65
2018-09-17T03:38:40.247Z,18.65
2018-09-17T03:41:09.706Z,18.68
2018-09-17T03:43:39.326Z,18.75
2018-09-17T03:46:07.854Z,18.81
2018-09-17T03:48:37.125Z,18.86
2018-09-17T03:51:06.422Z,18.89
2018-09-17T03:53:35.131Z,18.92
2018-09-17T03:56:03.550Z,18.93
2018-09-17T03:58:32.279Z,18.94
2018-09-17T04:01:01.618Z,18.95
2018-09-17T04:03:30.019Z,18.91
2018-09-17T04:05:58.429Z,18.94
2018-09-17T04:08:27.539Z,18.98
2018-09-17T04:10:55.950Z,19.02
2018-09-17T04:13:24.394Z,19.00
2018-09-17T04:15:53.003Z,18.93
2018-09-17T04:18:21.381Z,18.90
2018-09-17T04:20:49.709Z,18.79
2018-09-17T04:23:50.088Z,18.73
2018-09-17T04:26:18.488Z,18.65
2018-09-17T04:28:46.820Z,18.63
2018-09-17T04:31:15.206Z,18.63
2018-09-17T04:33:44.137Z,18.63
2018-09-17T04:36:13.270Z,18.65
2018-09-17T04:38:41.768Z,18.62
2018-09-17T04:41:10.176Z,18.61
2018-09-17T04:43:38.509Z,18.65
2018-09-17T04:46:07.092Z,18.67
2018-09-17T04:48:35.523Z,18.74
2018-09-17T04:51:04.112Z,18.77
2018-09-17T04:53:32.528Z,18.79
2018-09-17T04:56:00.874Z,18.81
2018-09-17T04:58:29.216Z,18.82
2018-09-17T05:00:57.608Z,18.84
2018-09-17T05:03:25.982Z,18.86
2018-09-17T05:05:54.354Z,18.87
2018-09-17T05:08:22.795Z,18.87
2018-09-17T05:10:51.241Z,18.84
2018-09-17T05:13:19.715Z,18.83
2018-09-17T05:15:48.129Z,18.79
2018-09-17T05:18:16.471Z,18.79
2018-09-17T05:20:44.845Z,18.68
2018-09-17T05:23:13.353Z,18.65
2018-09-17T05:25:41.699Z,18.63
2018-09-17T05:28:10.028Z,18.53
2018-09-17T05:30:38.478Z,18.53
2018-09-17T05:33:06.815Z,18.56
2018-09-17T05:35:35.228Z,18.62
2018-09-17T05:38:03.640Z,18.69
2018-09-17T05:40:31.952Z,18.74
2018-09-17T05:43:00.372Z,18.76
2018-09-17T05:45:28.786Z,18.77
2018-09-17T05:47:57.144Z,18.78
2018-09-17T05:50:25.550Z,18.73
2018-09-17T05:52:54.017Z,18.70
2018-09-17T05:55:22.621Z,18.70
2018-09-17T05:57:50.962Z,18.75
2018-09-17T06:00:19.725Z,18.78
2018-09-17T06:02:48.163Z,18.81
2018-09-17T06:05:16.581Z,18.84
2018-09-17T06:07:44.973Z,18.82
2018-09-17T06:10:14.859Z,18.85
2018-09-17T06:12:44.652Z,18.86
2018-09-17T06:15:13.368Z,18.88
2018-09-17T06:17:41.804Z,18.88
2018-09-17T06:20:10.188Z,18.92
2018-09-17T06:22:38.671Z,18.93
2018-09-17T06:25:07.096Z,18.95
2018-09-17T06:27:35.568Z,18.98
2018-09-17T06:30:04.050Z,18.98
2018-09-17T06:32:32.440Z,18.98
2018-09-17T06:35:00.828Z,18.98
2018-09-17T06:37:29.357Z,18.99
2018-09-17T06:39:57.696Z,19.01
2018-09-17T06:42:26.152Z,19.07
2018-09-17T06:44:54.570Z,19.13
2018-09-17T06:47:23.012Z,19.17
2018-09-17T06:49:52.576Z,19.18
2018-09-17T06:52:20.966Z,19.16
2018-09-17T06:54:49.304Z,19.16
2018-09-17T06:57:17.649Z,19.20
2018-09-17T06:59:46.026Z,19.24
2018-09-17T07:02:14.496Z,19.29
2018-09-17T07:04:43.011Z,19.31
2018-09-17T07:07:11.560Z,19.30
2018-09-17T07:09:39.883Z,19.28
2018-09-17T07:12:08.234Z,19.34
2018-09-17T07:14:36.644Z,19.37
2018-09-17T07:17:05.214Z,19.40
2018-09-17T07:19:33.555Z,19.45
2018-09-17T07:22:01.989Z,19.48
2018-09-17T07:24:30.343Z,19.51
2018-09-17T07:26:59.352Z,19.52
2018-09-17T07:29:27.989Z,19.53
2018-09-17T07:31:56.388Z,19.54
2018-09-17T07:34:24.725Z,19.58
2018-09-17T07:36:53.099Z,19.63
2018-09-17T07:39:21.506Z,19.73
2018-09-17T07:41:49.886Z,19.80
2018-09-17T07:44:18.247Z,19.85
2018-09-17T07:46:46.668Z,19.91
2018-09-17T07:49:15.037Z,19.96
2018-09-17T07:51:43.408Z,20.01
2018-09-17T07:54:11.767Z,20.07
2018-09-17T07:56:40.180Z,20.12
2018-09-17T07:59:08.732Z,20.18
2018-09-17T08:01:37.068Z,20.27
2018-09-17T08:04:05.463Z,20.37
2018-09-17T08:06:33.937Z,20.47
2018-09-17T08:09:02.293Z,20.56
2018-09-17T08:11:30.632Z,20.61
2018-09-17T08:13:59.164Z,20.66
2018-09-17T08:16:27.592Z,20.71
2018-09-17T08:18:55.940Z,20.80
2018-09-17T08:21:24.452Z,20.89
2018-09-17T08:23:52.849Z,20.96
2018-09-17T08:26:21.227Z,21.03
2018-09-17T08:28:51.032Z,21.15
2018-09-17T08:31:19.459Z,21.25
2018-09-17T08:33:47.787Z,21.34
2018-09-17T08:36:16.292Z,21.41
2018-09-17T08:38:44.635Z,21.48
2018-09-17T08:41:13.095Z,21.56
2018-09-17T08:43:41.526Z,21.65
2018-09-17T08:46:09.876Z,21.73
2018-09-17T08:48:38.211Z,21.81
2018-09-17T08:51:06.781Z,21.91
2018-09-17T08:53:35.124Z,22.00
2018-09-17T08:56:08.864Z,22.09
2018-09-17T08:58:42.604Z,22.14
2018-09-17T09:01:16.288Z,22.19
2018-09-17T09:03:49.927Z,22.28
2018-09-17T09:06:20.506Z,22.33
2018-09-17T09:08:49.515Z,22.40
2018-09-17T09:11:26.998Z,22.51
2018-09-17T09:13:56.411Z,22.62
2018-09-17T09:16:25.606Z,22.70
2018-09-17T09:18:54.057Z,22.77
2018-09-17T09:21:22.412Z,22.85
2018-09-17T09:23:50.785Z,22.95
2018-09-17T09:26:19.399Z,23.07
2018-09-17T09:28:47.707Z,23.16
2018-09-17T09:31:16.125Z,23.20
2018-09-17T09:33:44.694Z,23.26
2018-09-17T09:36:13.187Z,23.32
2018-09-17T09:38:41.506Z,23.39
2018-09-17T09:41:09.989Z,23.47
2018-09-17T09:43:38.434Z,23.58
2018-09-17T09:46:06.995Z,23.65
2018-09-17T09:48:35.402Z,23.77
2018-09-17T09:51:03.985Z,23.86
2018-09-17T09:53:32.439Z,23.89
2018-09-17T09:56:00.918Z,23.97
2018-09-17T09:58:29.269Z,24.08
2018-09-17T10:01:03.043Z,24.14
2018-09-17T10:03:36.618Z,24.24
2018-09-17T10:06:05.132Z,24.36
2018-09-17T10:08:37.729Z,24.52
2018-09-17T10:11:11.613Z,24.59
2018-09-17T10:13:45.295Z,24.66
2018-09-17T10:16:18.148Z,24.68
2018-09-17T10:18:51.903Z,24.65
2018-09-17T10:21:20.305Z,24.69
2018-09-17T10:23:48.748Z,24.78
2018-09-17T10:26:17.107Z,24.92
2018-09-17T10:28:45.525Z,25.07
2018-09-17T10:31:14.340Z,25.15
2018-09-17T10:33:42.663Z,25.22
2018-09-17T10:36:11.323Z,25.27
2018-09-17T10:38:39.638Z,25.33
2018-09-17T10:41:07.996Z,25.47
2018-09-17T10:43:36.579Z,25.62
2018-09-17T10:46:04.979Z,25.75
2018-09-17T10:48:33.321Z,25.83
2018-09-17T10:51:01.915Z,25.90
2018-09-17T10:53:30.245Z,25.96
2018-09-17T10:55:58.671Z,26.00
2018-09-17T10:58:27.103Z,26.13
2018-09-17T11:00:55.455Z,26.25
2018-09-17T11:03:23.892Z,26.30
2018-09-17T11:05:52.379Z,26.41
2018-09-17T11:08:21.042Z,26.51
2018-09-17T11:10:49.337Z,26.63
2018-09-17T11:13:17.779Z,26.73
2018-09-17T11:15:48.288Z,26.81
2018-09-17T11:18:17.836Z,26.91
2018-09-17T11:20:47.133Z,27.00
2018-09-17T11:23:15.485Z,27.07
2018-09-17T11:25:44.088Z,27.18
2018-09-17T11:28:12.467Z,27.23
2018-09-17T11:30:40.883Z,27.26
2018-09-17T11:33:09.218Z,27.32
2018-09-17T11:35:37.665Z,27.43
2018-09-17T11:38:06.019Z,27.53
2018-09-17T11:40:34.379Z,27.62
2018-09-17T11:43:02.855Z,27.69
2018-09-17T11:45:31.213Z,27.67
2018-09-17T11:47:59.634Z,27.77
2018-09-17T11:50:28.195Z,27.88
2018-09-17T11:52:56.547Z,27.91
2018-09-17T11:55:24.983Z,27.93
2018-09-17T11:57:53.514Z,28.02
2018-09-17T12:00:27.216Z,28.08
2018-09-17T12:03:00.844Z,28.21
2018-09-17T12:05:34.531Z,28.32
2018-09-17T12:08:07.072Z,28.38
2018-09-17T12:10:35.504Z,28.39
2018-09-17T12:13:03.911Z,28.41
2018-09-17T12:15:32.312Z,28.46
2018-09-17T12:18:00.750Z,28.49
2018-09-17T12:20:29.084Z,28.54
2018-09-17T12:22:57.782Z,28.53
2018-09-17T12:25:26.219Z,28.60
2018-09-17T12:27:54.570Z,28.62
2018-09-17T12:30:22.936Z,28.78
2018-09-17T12:32:51.263Z,28.93
2018-09-17T12:35:19.774Z,29.00
2018-09-17T12:37:48.175Z,29.00
2018-09-17T12:40:16.580Z,29.00
2018-09-17T12:42:44.908Z,29.10
2018-09-17T12:45:13.536Z,29.17
2018-09-17T12:47:41.913Z,29.20
2018-09-17T12:50:10.310Z,29.24
2018-09-17T12:52:38.864Z,29.30
2018-09-17T12:55:07.283Z,29.30
2018-09-17T12:57:35.736Z,29.39
2018-09-17T13:00:04.499Z,29.41
2018-09-17T13:02:32.807Z,29.48
2018-09-17T13:05:01.191Z,29.54
2018-09-17T13:07:29.577Z,29.57
2018-09-17T13:09:57.915Z,29.58
2018-09-17T13:12:26.412Z,29.57
2018-09-17T13:14:55.326Z,29.55
2018-09-17T13:17:23.535Z,29.57
2018-09-17T13:19:51.885Z,29.62
2018-09-17T13:22:20.273Z,29.69
2018-09-17T13:24:48.712Z,29.68
2018-09-17T13:27:17.755Z,29.65
2018-09-17T13:29:46.267Z,29.52
2018-09-17T13:32:14.749Z,29.51
2018-09-17T13:34:43.087Z,29.58
2018-09-17T13:37:11.872Z,29.73
2018-09-17T13:39:40.602Z,29.78
2018-09-17T13:42:08.921Z,29.80
2018-09-17T13:44:37.569Z,29.72
2018-09-17T13:47:05.959Z,29.74
2018-09-17T13:49:34.415Z,29.76
2018-09-17T13:52:03.029Z,29.83
2018-09-17T13:54:31.987Z,29.84
2018-09-17T13:57:00.327Z,29.82
2018-09-17T13:59:28.842Z,29.83
2018-09-17T14:01:57.179Z,29.91
2018-09-17T14:04:25.651Z,29.90
2018-09-17T14:06:53.942Z,29.84
2018-09-17T14:09:22.359Z,29.89
2018-09-17T14:11:50.727Z,29.95
2018-09-17T14:14:19.290Z,29.85
2018-09-17T14:16:48.703Z,29.75
2018-09-17T14:19:17.199Z,29.74
2018-09-17T14:21:45.730Z,29.67
2018-09-17T14:24:14.119Z,29.54
2018-09-17T14:26:42.475Z,29.57
2018-09-17T14:29:11.247Z,29.62
2018-09-17T14:31:51.615Z,29.62
2018-09-17T14:34:20.141Z,29.51
2018-09-17T14:36:48.465Z,29.38
2018-09-17T14:39:16.841Z,29.28
2018-09-17T14:41:45.516Z,29.25
2018-09-17T14:44:13.957Z,29.21
2018-09-17T14:46:42.365Z,29.21
2018-09-17T14:49:10.757Z,29.16
2018-09-17T14:51:39.299Z,29.14
2018-09-17T14:54:07.627Z,29.12
2018-09-17T14:56:35.997Z,29.05
2018-09-17T14:59:04.349Z,28.97
2018-09-17T15:01:32.732Z,28.94
2018-09-17T15:04:01.115Z,28.90
2018-09-17T15:06:29.412Z,28.85
2018-09-17T15:08:57.739Z,28.78
2018-09-17T15:11:26.334Z,28.58
2018-09-17T15:13:54.840Z,28.51
2018-09-17T15:16:23.280Z,28.42
2018-09-17T15:18:51.585Z,28.36
2018-09-17T15:21:19.915Z,28.30
2018-09-17T15:23:49.201Z,28.28
2018-09-17T15:26:17.520Z,28.28
2018-09-17T15:28:45.850Z,28.29
2018-09-17T15:31:14.286Z,28.30
2018-09-17T15:33:42.653Z,28.32
2018-09-17T15:36:11.115Z,28.27
2018-09-17T15:38:40.420Z,28.30
2018-09-17T15:41:08.935Z,28.31
2018-09-17T15:43:37.266Z,28.30
2018-09-17T15:46:05.649Z,28.30
2018-09-17T15:48:33.975Z,28.32
2018-09-17T15:51:02.815Z,28.24
2018-09-17T15:53:31.459Z,28.30
2018-09-17T15:56:00.173Z,28.29
2018-09-17T15:58:28.491Z,28.26
2018-09-17T16:00:56.837Z,28.25
2018-09-17T16:03:25.245Z,28.24
2018-09-17T16:05:53.680Z,28.22
2018-09-17T16:08:22.042Z,28.17
2018-09-17T16:10:50.467Z,28.11
2018-09-17T16:13:18.876Z,28.06
2018-09-17T16:15:48.432Z,27.98
2018-09-17T16:18:17.892Z,27.91
2018-09-17T16:20:46.333Z,27.83
2018-09-17T16:23:14.689Z,27.61
2018-09-17T16:25:44.426Z,27.60
2018-09-17T16:28:12.872Z,27.56
2018-09-17T16:30:41.274Z,27.52
2018-09-17T16:33:09.725Z,27.46
2018-09-17T16:35:38.123Z,27.38
2018-09-17T16:38:06.503Z,27.28
2018-09-17T16:40:35.071Z,27.22
2018-09-17T16:43:03.411Z,27.17
2018-09-17T16:45:31.765Z,27.10
2018-09-17T16:48:00.186Z,27.02
2018-09-17T16:50:28.517Z,26.95
2018-09-17T16:52:57.015Z,26.90
2018-09-17T16:55:25.475Z,26.83
2018-09-17T16:57:53.995Z,26.78
2018-09-17T17:00:22.335Z,26.71
2018-09-17T17:02:51.089Z,26.63
2018-09-17T17:05:19.580Z,26.57
2018-09-17T17:07:47.967Z,26.48
2018-09-17T17:10:16.423Z,26.43
2018-09-17T17:12:44.739Z,26.37
2018-09-17T17:15:13.073Z,26.29
2018-09-17T17:17:41.681Z,26.25
2018-09-17T17:20:10.107Z,26.18
2018-09-17T17:22:38.480Z,26.10
2018-09-17T17:25:06.986Z,26.00
2018-09-17T17:27:35.340Z,25.93
2018-09-17T17:30:03.760Z,25.86
2018-09-17T17:32:32.198Z,25.78
2018-09-17T17:35:00.645Z,25.71
2018-09-17T17:37:29.026Z,25.68
2018-09-17T17:39:57.571Z,25.59
2018-09-17T17:42:25.918Z,25.32
2018-09-17T17:44:54.822Z,25.10
2018-09-17T17:47:23.266Z,25.00
2018-09-17T17:49:51.772Z,24.87
2018-09-17T17:52:20.345Z,24.73
2018-09-17T17:54:48.741Z,24.70
2018-09-17T17:57:17.191Z,24.73
2018-09-17T17:59:45.657Z,24.75
2018-09-17T18:02:14.278Z,24.73
2018-09-17T18:04:42.770Z,24.56
2018-09-17T18:07:11.218Z,24.38
2018-09-17T18:09:39.627Z,24.16
2018-09-17T18:12:07.988Z,24.08
2018-09-17T18:14:36.338Z,24.00
2018-09-17T18:17:04.814Z,23.90
2018-09-17T18:19:33.210Z,23.82
2018-09-17T18:22:01.544Z,23.81
2018-09-17T18:24:30.844Z,23.81
2018-09-17T18:26:59.322Z,23.79
2018-09-17T18:29:27.876Z,23.83
2018-09-17T18:31:56.458Z,23.81
2018-09-17T18:34:24.924Z,23.81
2018-09-17T18:36:53.433Z,23.86
2018-09-17T18:39:22.013Z,23.88
2018-09-17T18:41:50.324Z,23.89
2018-09-17T18:44:18.721Z,23.90
2018-09-17T18:46:47.140Z,23.88
2018-09-17T18:49:15.577Z,23.88
2018-09-17T18:51:44.114Z,23.89
2018-09-17T18:54:12.541Z,23.89
2018-09-17T18:56:41.006Z,23.88
2018-09-17T18:59:09.360Z,23.82
2018-09-17T19:01:37.848Z,23.76
2018-09-17T19:04:06.377Z,23.67
2018-09-17T19:06:34.752Z,23.54
2018-09-17T19:09:03.204Z,23.48
2018-09-17T19:11:31.629Z,23.45
2018-09-17T19:14:05.488Z,23.38
2018-09-17T19:16:39.966Z,23.42
2018-09-17T19:19:08.518Z,23.37
2018-09-17T19:21:42.429Z,23.16
2018-09-17T19:24:10.894Z,23.01
2018-09-17T19:26:39.328Z,22.89
2018-09-17T19:29:13.099Z,22.86
2018-09-17T19:31:41.458Z,22.80
2018-09-17T19:34:09.889Z,22.75
2018-09-17T19:36:38.279Z,22.71
2018-09-17T19:39:12.660Z,22.71
2018-09-17T19:41:41.900Z,22.71
2018-09-17T19:44:10.272Z,22.74
2018-09-17T19:46:38.748Z,22.76
2018-09-17T19:49:07.209Z,22.83
2018-09-17T19:51:41.034Z,22.85
2018-09-17T19:54:09.605Z,22.80
2018-09-17T19:56:38.168Z,22.75
2018-09-17T19:59:11.802Z,22.68
2018-09-17T20:01:40.234Z,22.60
2018-09-17T20:04:13.900Z,22.51
2018-09-17T20:06:42.310Z,22.53
2018-09-17T20:09:11.540Z,22.56
2018-09-17T20:11:40.353Z,22.56
2018-09-17T20:14:08.920Z,22.57
2018-09-17T20:16:37.296Z,22.57
2018-09-17T20:19:05.732Z,22.48
2018-09-17T20:21:34.108Z,22.36
2018-09-17T20:24:02.484Z,22.29
2018-09-17T20:26:30.856Z,22.23
2018-09-17T20:28:59.260Z,22.26
2018-09-17T20:31:27.677Z,22.26
2018-09-17T20:33:56.203Z,22.20
2018-09-17T20:36:24.571Z,22.16
2018-09-17T20:38:53.065Z,22.14
2018-09-17T20:41:21.487Z,22.13
2018-09-17T20:43:49.915Z,22.10
2018-09-17T20:46:18.269Z,22.08
2018-09-17T20:48:46.886Z,22.04
2018-09-17T20:51:15.179Z,22.00
2018-09-17T20:53:43.600Z,21.97
2018-09-17T20:56:12.166Z,21.92
2018-09-17T20:58:40.501Z,21.85
2018-09-17T21:01:09.359Z,21.72
2018-09-17T21:03:37.644Z,21.58
2018-09-17T21:06:06.117Z,21.51
2018-09-17T21:08:34.519Z,21.40
2018-09-17T21:11:03.241Z,21.33
2018-09-17T21:13:31.777Z,21.28
2018-09-17T21:16:00.095Z,21.27
2018-09-17T21:18:28.643Z,21.32
2018-09-17T21:20:57.037Z,21.42
2018-09-17T21:23:25.385Z,21.41
2018-09-17T21:25:53.895Z,21.37
2018-09-17T21:28:22.279Z,21.35
2018-09-17T21:30:50.773Z,21.34
2018-09-17T21:33:19.172Z,21.38
2018-09-17T21:35:47.603Z,21.45
2018-09-17T21:38:16.001Z,21.45
2018-09-17T21:40:44.486Z,21.47
2018-09-17T21:43:12.919Z,21.46
2018-09-17T21:45:41.165Z,21.44
2018-09-17T21:48:09.635Z,21.40
2018-09-17T21:50:37.956Z,21.37
2018-09-17T21:53:06.435Z,21.43
2018-09-17T21:55:35.039Z,21.48
2018-09-17T21:58:03.359Z,21.45
2018-09-17T22:01:03.634Z,21.33
2018-09-17T22:03:33.504Z,21.20
2018-09-17T22:06:01.864Z,21.07
2018-09-17T22:08:30.828Z,20.94
2018-09-17T22:10:59.244Z,20.85
2018-09-17T22:13:28.104Z,20.76
2018-09-17T22:15:56.517Z,20.69
2018-09-17T22:18:24.964Z,20.63
2018-09-17T22:20:53.338Z,20.62
2018-09-17T22:23:21.827Z,20.63
2018-09-17T22:25:50.160Z,20.60
2018-09-17T22:28:18.488Z,20.59
2018-09-17T22:30:46.918Z,20.62
2018-09-17T22:33:15.248Z,20.59
2018-09-17T22:35:43.640Z,20.57
2018-09-17T22:38:12.040Z,20.51
2018-09-17T22:40:41.232Z,20.49
2018-09-17T22:43:09.560Z,20.41
2018-09-17T22:45:37.988Z,20.38
2018-09-17T22:48:06.440Z,20.37
2018-09-17T22:50:34.803Z,20.34
2018-09-17T22:53:03.372Z,20.35
2018-09-17T22:55:31.711Z,20.32
2018-09-17T22:58:00.052Z,20.32
2018-09-17T23:00:28.448Z,20.36
2018-09-17T23:02:56.801Z,20.37
2018-09-17T23:05:25.176Z,20.36
2018-09-17T23:07:53.659Z,20.41
2018-09-17T23:10:21.994Z,20.50
2018-09-17T23:12:50.403Z,20.53
2018-09-17T23:15:18.894Z,20.51
2018-09-17T23:17:47.275Z,20.50
2018-09-17T23:20:15.688Z,20.50
2018-09-17T23:22:44.100Z,20.46
2018-09-17T23:25:12.444Z,20.41
2018-09-17T23:27:40.791Z,20.37
2018-09-17T23:30:09.178Z,20.35
2018-09-17T23:32:37.584Z,20.34
2018-09-17T23:35:06.020Z,20.29
2018-09-17T23:37:34.446Z,20.27
2018-09-17T23:40:02.853Z,20.22
2018-09-17T23:42:31.163Z,20.19
2018-09-17T23:44:59.582Z,20.23
2018-09-17T23:47:28.102Z,20.29
2018-09-17T23:49:56.496Z,20.34
2018-09-17T23:52:24.912Z,20.41
2018-09-17T23:54:53.460Z,20.48
2018-09-17T23:57:21.781Z,20.52
2018-09-17T23:59:50.161Z,20.45
